Time;durP1;ratioP1;P1;durP2;ratioP2;P2;SDS_P1;SDS_P2;PMS_P1;PMS_P2;Temp;Humidity;BMP_temperature;BMP_pressure;BME280_temperature;BME280_humidity;BME280_pressure;Samples;Min_cycle;Max_cycle;Signal;HPM_P1;HPM_P2
2022/05/31 00:01:40;;;;;;;6.30;3.60;;;;;;;;;;5065905;28;20470;-61
2022/05/31 00:04:06;;;;;;;4.90;3.37;;;;;;;;;;5064441;28;20125;-61
2022/05/31 00:06:32;;;;;;;7.27;3.97;;;;;;;;;;5067766;28;20056;-61
2022/05/31 00:08:58;;;;;;;7.10;4.00;;;;;;;;;;5066622;28;20078;-62
2022/05/31 00:11:24;;;;;;;9.37;4.20;;;;;;;;;;5066883;28;20518;-61
2022/05/31 00:13:50;;;;;;;5.90;3.70;;;;;;;;;;5053937;28;20041;-61
2022/05/31 00:16:16;;;;;;;9.83;3.60;;;;;;;;;;5048398;28;20102;-61
2022/05/31 00:18:42;;;;;;;7.50;4.53;;;;;;;;;;5048822;28;20037;-61
2022/05/31 00:21:08;;;;;;;8.47;3.83;;;;;;;;;;5050323;28;20044;-61
2022/05/31 00:23:35;;;;;;;5.77;3.57;;;;;;;;;;5068459;28;20044;-61
2022/05/31 00:26:01;;;;;;;5.70;3.80;;;;;;;;;;5068703;28;20040;-61
2022/05/31 00:28:27;;;;;;;7.30;4.07;;;;;;;;;;5068606;28;20037;-62
2022/05/31 00:30:53;;;;;;;5.87;3.40;;;;;;;;;;5068367;28;20048;-61
2022/05/31 00:33:19;;;;;;;8.83;5.30;;;;;;;;;;5062242;28;20090;-61
2022/05/31 00:35:46;;;;;;;6.90;4.33;;;;;;;;;;5058516;28;20421;-61
2022/05/31 00:38:13;;;;;;;8.60;5.20;;;;;;;;;;5048174;28;20558;-61
2022/05/31 00:40:39;;;;;;;10.97;5.00;;;;;;;;;;5048412;28;20091;-61
2022/05/31 00:43:09;;;;;;;8.97;5.10;;;;;;;;;;5048213;28;20523;-61
2022/05/31 00:45:38;;;;;;;8.17;5.53;;;;;;;;;;5047740;28;20048;-61
2022/05/31 00:48:05;;;;;;;9.83;5.37;;;;;;;;;;5049493;28;20041;-61
2022/05/31 00:50:38;;;;;;;8.73;6.03;;;;;;;;;;5046738;28;20053;-61
2022/05/31 00:53:08;;;;;;;7.83;5.40;;;;;;;;;;5054979;28;20114;-61
2022/05/31 00:55:43;;;;;;;15.57;6.03;;;;;;;;;;5048086;28;20127;-61
2022/05/31 00:58:22;;;;;;;11.23;6.07;;;;;;;;;;5048220;28;20503;-61
2022/05/31 01:00:50;;;;;;;12.17;7.17;;;;;;;;;;5047822;28;20033;-61
2022/05/31 01:03:18;;;;;;;11.63;6.47;;;;;;;;;;5048030;28;20052;-61
2022/05/31 01:05:45;;;;;;;11.77;6.57;;;;;;;;;;5048395;28;20130;-61
2022/05/31 01:08:11;;;;;;;12.17;6.50;;;;;;;;;;5049467;28;20873;-61
2022/05/31 01:10:37;;;;;;;11.80;6.47;;;;;;;;;;5062491;28;20045;-61
2022/05/31 01:13:03;;;;;;;8.93;5.70;;;;;;;;;;5047995;28;20051;-61
2022/05/31 01:15:29;;;;;;;11.80;6.93;;;;;;;;;;5050663;28;20110;-61
2022/05/31 01:17:55;;;;;;;12.53;7.87;;;;;;;;;;5051391;28;20041;-61
2022/05/31 01:20:22;;;;;;;13.67;7.50;;;;;;;;;;5065447;28;20564;-61
2022/05/31 01:22:50;;;;;;;14.33;8.57;;;;;;;;;;5069715;28;20075;-61
2022/05/31 01:25:23;;;;;;;11.63;8.50;;;;;;;;;;5071010;28;20040;-61
2022/05/31 01:27:52;;;;;;;15.18;9.52;;;;;;;;;;5065854;28;20041;-61
2022/05/31 01:30:19;;;;;;;14.00;7.80;;;;;;;;;;5052498;28;20114;-61
2022/05/31 01:32:57;;;;;;;15.17;8.37;;;;;;;;;;5071415;28;20123;-61
2022/05/31 01:35:26;;;;;;;11.20;7.37;;;;;;;;;;5071056;28;20541;-62
2022/05/31 01:37:55;;;;;;;17.73;9.37;;;;;;;;;;5070727;28;20052;-61
2022/05/31 01:40:45;;;;;;;17.37;8.47;;;;;;;;;;5059874;28;20059;-61
2022/05/31 01:43:11;;;;;;;13.07;9.27;;;;;;;;;;5065118;28;20446;-61
2022/05/31 01:45:39;;;;;;;16.60;9.90;;;;;;;;;;5071116;28;20441;-61
2022/05/31 01:48:06;;;;;;;16.33;10.33;;;;;;;;;;5070904;28;20135;-61
2022/05/31 01:50:33;;;;;;;17.57;10.53;;;;;;;;;;5061902;28;20055;-62
2022/05/31 01:52:59;;;;;;;17.23;11.80;;;;;;;;;;5051041;28;20052;-61
2022/05/31 01:55:26;;;;;;;18.67;11.17;;;;;;;;;;5050992;28;20037;-61
2022/05/31 01:57:56;;;;;;;15.40;10.63;;;;;;;;;;5050101;28;20698;-61
2022/05/31 02:00:23;;;;;;;17.30;10.87;;;;;;;;;;5051040;28;20049;-61
2022/05/31 02:02:54;;;;;;;13.87;9.97;;;;;;;;;;5050849;28;20570;-61
2022/05/31 02:05:20;;;;;;;19.53;12.23;;;;;;;;;;5050918;28;20102;-61
2022/05/31 02:07:57;;;;;;;15.83;10.53;;;;;;;;;;5050790;28;20123;-61
2022/05/31 02:10:23;;;;;;;12.33;8.93;;;;;;;;;;5050960;28;20048;-61
2022/05/31 02:12:50;;;;;;;15.10;10.23;;;;;;;;;;5050565;28;20509;-61
2022/05/31 02:15:16;;;;;;;16.43;10.60;;;;;;;;;;5051346;28;20487;-61
2022/05/31 02:17:42;;;;;;;14.80;10.53;;;;;;;;;;5070500;28;20123;-61
2022/05/31 02:20:09;;;;;;;16.00;10.20;;;;;;;;;;5058181;28;20045;-61
2022/05/31 02:22:35;;;;;;;15.13;9.50;;;;;;;;;;5050118;28;20053;-61
2022/05/31 02:25:01;;;;;;;12.77;9.57;;;;;;;;;;5050704;28;20485;-61
2022/05/31 02:27:27;;;;;;;13.73;9.23;;;;;;;;;;5049785;28;20045;-61
2022/05/31 02:29:53;;;;;;;16.67;9.03;;;;;;;;;;5050000;28;20123;-61
2022/05/31 02:32:19;;;;;;;13.27;8.93;;;;;;;;;;5050559;28;20440;-61
2022/05/31 02:34:46;;;;;;;13.60;8.67;;;;;;;;;;5055578;28;20454;-61
2022/05/31 02:37:13;;;;;;;13.70;9.20;;;;;;;;;;5052231;28;20052;-61
2022/05/31 02:39:39;;;;;;;15.20;9.27;;;;;;;;;;5069794;28;20086;-61
2022/05/31 02:42:06;;;;;;;14.77;9.87;;;;;;;;;;5069608;28;20040;-61
2022/05/31 02:44:32;;;;;;;11.43;7.73;;;;;;;;;;5070019;28;20048;-61
2022/05/31 02:46:58;;;;;;;11.13;8.23;;;;;;;;;;5069200;28;20502;-61
2022/05/31 02:49:24;;;;;;;14.10;9.10;;;;;;;;;;5063911;28;20049;-61
2022/05/31 02:51:50;;;;;;;16.20;9.87;;;;;;;;;;5049956;28;20049;-61
2022/05/31 02:54:18;;;;;;;12.67;9.47;;;;;;;;;;5049625;28;20044;-61
2022/05/31 02:56:46;;;;;;;13.47;8.77;;;;;;;;;;5048567;28;20052;-61
2022/05/31 02:59:12;;;;;;;11.03;7.63;;;;;;;;;;5049798;28;20820;-61
2022/05/31 03:01:39;;;;;;;10.73;7.67;;;;;;;;;;5049942;28;20404;-62
2022/05/31 03:04:05;;;;;;;9.30;6.67;;;;;;;;;;5049638;28;20075;-61
2022/05/31 03:06:31;;;;;;;13.43;9.50;;;;;;;;;;5049546;28;20048;-62
2022/05/31 03:09:00;;;;;;;9.60;7.23;;;;;;;;;;5049854;28;20049;-62
2022/05/31 03:11:30;;;;;;;7.87;6.67;;;;;;;;;;5049585;28;20487;-61
2022/05/31 03:14:01;;;;;;;9.80;6.37;;;;;;;;;;5049346;28;20049;-61
2022/05/31 03:16:27;;;;;;;10.07;6.07;;;;;;;;;;5049660;28;20037;-61
2022/05/31 03:18:55;;;;;;;9.57;7.23;;;;;;;;;;5047673;28;20476;-62
2022/05/31 03:21:23;;;;;;;12.10;7.53;;;;;;;;;;5048365;28;20446;-62
2022/05/31 03:23:52;;;;;;;9.57;6.00;;;;;;;;;;5048165;28;20495;-61
2022/05/31 03:26:19;;;;;;;9.17;6.30;;;;;;;;;;5048946;28;20048;-61
2022/05/31 03:28:45;;;;;;;10.97;6.50;;;;;;;;;;5049363;28;20041;-61
2022/05/31 03:31:11;;;;;;;7.27;5.63;;;;;;;;;;5048885;28;20847;-62
2022/05/31 03:33:37;;;;;;;7.23;5.97;;;;;;;;;;5049301;28;20052;-62
2022/05/31 03:36:04;;;;;;;8.07;5.63;;;;;;;;;;5048749;28;20045;-62
2022/05/31 03:38:30;;;;;;;8.10;5.70;;;;;;;;;;5066809;28;20051;-62
2022/05/31 03:40:56;;;;;;;6.43;4.80;;;;;;;;;;5068723;28;20045;-61
2022/05/31 03:43:23;;;;;;;7.33;5.30;;;;;;;;;;5068961;28;20048;-61
2022/05/31 03:45:49;;;;;;;7.83;5.20;;;;;;;;;;5064982;28;20082;-61
2022/05/31 03:48:15;;;;;;;7.07;4.93;;;;;;;;;;5047199;28;20041;-61
2022/05/31 03:50:42;;;;;;;8.70;4.97;;;;;;;;;;5054055;28;20541;-61
2022/05/31 03:53:09;;;;;;;7.30;4.80;;;;;;;;;;5054326;28;20059;-62
2022/05/31 03:55:39;;;;;;;6.10;4.17;;;;;;;;;;5057162;28;20049;-61
2022/05/31 03:58:05;;;;;;;7.60;4.60;;;;;;;;;;5055365;28;20041;-62
2022/05/31 04:00:32;;;;;;;6.33;4.27;;;;;;;;;;5056720;28;20532;-63
2022/05/31 04:02:58;;;;;;;9.23;4.43;;;;;;;;;;5057049;28;20519;-62
2022/05/31 04:05:24;;;;;;;8.97;4.17;;;;;;;;;;5056527;28;20074;-62
2022/05/31 04:07:54;;;;;;;6.07;4.17;;;;;;;;;;5057427;28;20075;-61
2022/05/31 04:10:20;;;;;;;8.40;4.17;;;;;;;;;;5066836;28;20445;-62
2022/05/31 04:12:47;;;;;;;6.90;3.80;;;;;;;;;;5066782;28;20048;-61
2022/05/31 04:15:13;;;;;;;6.87;4.07;;;;;;;;;;5055556;28;20084;-61
2022/05/31 04:17:39;;;;;;;6.30;3.50;;;;;;;;;;5046822;28;20131;-61
2022/05/31 04:20:05;;;;;;;8.33;3.80;;;;;;;;;;5049960;28;20123;-61
2022/05/31 04:22:32;;;;;;;5.07;3.33;;;;;;;;;;5067896;28;20064;-61
2022/05/31 04:25:01;;;;;;;7.07;3.70;;;;;;;;;;5068397;28;20054;-62
2022/05/31 04:27:28;;;;;;;7.70;3.60;;;;;;;;;;5068341;28;20040;-62
2022/05/31 04:29:54;;;;;;;7.43;3.93;;;;;;;;;;5067447;28;20571;-62
2022/05/31 04:32:19;;;;;;;7.10;3.47;;;;;;;;;;5068626;28;20048;-62
2022/05/31 04:34:46;;;;;;;4.67;3.30;;;;;;;;;;5066931;28;20052;-61
2022/05/31 04:37:12;;;;;;;4.10;3.20;;;;;;;;;;5066579;28;20110;-62
2022/05/31 04:39:38;;;;;;;4.57;3.30;;;;;;;;;;5067958;28;20080;-61
2022/05/31 04:42:04;;;;;;;4.90;3.30;;;;;;;;;;5067616;28;20636;-61
2022/05/31 04:44:30;;;;;;;6.10;3.53;;;;;;;;;;5066995;28;20487;-62
2022/05/31 04:46:56;;;;;;;6.33;3.80;;;;;;;;;;5048749;28;20041;-61
2022/05/31 04:49:23;;;;;;;4.13;3.07;;;;;;;;;;5048460;28;20151;-61
2022/05/31 04:51:49;;;;;;;5.10;3.50;;;;;;;;;;5068942;28;20525;-62
2022/05/31 04:54:17;;;;;;;5.83;3.27;;;;;;;;;;5070930;28;20470;-62
2022/05/31 04:56:44;;;;;;;5.40;3.00;;;;;;;;;;5071258;28;20059;-62
2022/05/31 04:59:10;;;;;;;8.57;3.73;;;;;;;;;;5070799;28;20040;-61
2022/05/31 05:01:37;;;;;;;4.87;3.50;;;;;;;;;;5070656;28;20056;-61
2022/05/31 05:04:04;;;;;;;5.87;3.17;;;;;;;;;;5071180;28;20537;-61
2022/05/31 05:06:30;;;;;;;5.57;3.77;;;;;;;;;;5069664;28;20058;-61
2022/05/31 05:08:56;;;;;;;6.97;3.20;;;;;;;;;;5070837;28;20127;-62
2022/05/31 05:11:23;;;;;;;3.73;2.77;;;;;;;;;;5071406;28;20135;-62
2022/05/31 05:13:50;;;;;;;4.33;3.17;;;;;;;;;;5055905;28;20552;-62
2022/05/31 05:16:17;;;;;;;7.80;3.50;;;;;;;;;;5050489;28;20407;-62
2022/05/31 05:18:43;;;;;;;4.70;3.03;;;;;;;;;;5050917;28;20033;-62
2022/05/31 05:21:11;;;;;;;4.47;3.07;;;;;;;;;;5065432;28;20050;-62
2022/05/31 05:23:37;;;;;;;8.10;3.13;;;;;;;;;;5070908;28;20037;-62
2022/05/31 05:26:04;;;;;;;4.23;3.27;;;;;;;;;;5070923;28;20040;-62
2022/05/31 05:31:33;;;;;;;4.90;3.60;;;;;;;;;;5061869;28;20116;-62
2022/05/31 05:34:02;;;;;;;7.00;3.17;;;;;;;;;;5070665;28;20106;-62
2022/05/31 05:36:29;;;;;;;3.70;2.60;;;;;;;;;;5070701;28;20044;-62
2022/05/31 05:38:55;;;;;;;5.00;3.13;;;;;;;;;;5069130;28;20148;-62
2022/05/31 05:41:22;;;;;;;7.17;3.27;;;;;;;;;;5059419;28;20518;-61
2022/05/31 05:43:48;;;;;;;7.20;2.93;;;;;;;;;;5057072;28;20060;-62
2022/05/31 05:46:19;;;;;;;4.50;2.77;;;;;;;;;;5057009;28;20045;-62
2022/05/31 05:48:45;;;;;;;5.87;2.97;;;;;;;;;;5070803;28;20056;-62
2022/05/31 05:51:15;;;;;;;5.13;2.30;;;;;;;;;;5058611;28;20041;-61
2022/05/31 05:53:41;;;;;;;4.70;2.53;;;;;;;;;;5066300;28;20517;-61
2022/05/31 05:56:07;;;;;;;5.60;2.77;;;;;;;;;;5061301;28;20044;-62
2022/05/31 05:58:34;;;;;;;3.57;2.30;;;;;;;;;;5050198;28;20037;-61
2022/05/31 06:01:00;;;;;;;8.80;3.53;;;;;;;;;;5048181;28;20049;-62
2022/05/31 06:03:33;;;;;;;3.90;2.50;;;;;;;;;;5050064;28;20068;-63
2022/05/31 06:05:59;;;;;;;6.72;3.53;;;;;;;;;;5062485;28;20490;-62
2022/05/31 06:08:34;;;;;;;5.20;2.83;;;;;;;;;;5064327;28;20041;-62
2022/05/31 06:11:00;;;;;;;5.30;2.33;;;;;;;;;;5068702;28;20052;-62
2022/05/31 06:13:30;;;;;;;5.87;2.57;;;;;;;;;;5070191;28;20502;-62
2022/05/31 06:15:57;;;;;;;3.97;2.60;;;;;;;;;;5070260;28;20467;-61
2022/05/31 06:18:29;;;;;;;6.57;2.97;;;;;;;;;;5060567;28;20036;-62
2022/05/31 06:20:57;;;;;;;5.90;3.70;;;;;;;;;;5058750;28;20037;-62
2022/05/31 06:23:23;;;;;;;6.90;2.90;;;;;;;;;;5057145;28;20118;-62
2022/05/31 06:25:49;;;;;;;4.60;2.20;;;;;;;;;;5059427;28;20602;-62
2022/05/31 06:28:15;;;;;;;5.27;2.50;;;;;;;;;;5068630;28;20123;-62
2022/05/31 06:30:41;;;;;;;8.67;2.87;;;;;;;;;;5054257;28;20047;-62
2022/05/31 06:33:07;;;;;;;5.60;2.60;;;;;;;;;;5052377;28;20128;-62
2022/05/31 06:35:33;;;;;;;5.80;2.37;;;;;;;;;;5050070;28;20095;-62
2022/05/31 06:37:59;;;;;;;6.17;2.07;;;;;;;;;;5067902;28;20050;-62
2022/05/31 06:40:26;;;;;;;7.10;2.77;;;;;;;;;;5070631;28;20048;-62
2022/05/31 06:42:52;;;;;;;5.20;2.10;;;;;;;;;;5068237;28;20599;-62
2022/05/31 06:45:18;;;;;;;8.87;2.40;;;;;;;;;;5050320;28;20525;-62
2022/05/31 06:47:44;;;;;;;3.43;2.07;;;;;;;;;;5048777;28;20044;-62
2022/05/31 06:50:12;;;;;;;3.67;2.50;;;;;;;;;;5049312;28;20052;-61
2022/05/31 06:58:07;;;;;;;4.70;2.57;;;;;;;;;;5050768;28;20488;-62
2022/05/31 07:00:33;;;;;;;5.40;3.57;;;;;;;;;;5060753;28;20057;-60
2022/05/31 07:02:59;;;;;;;7.43;3.00;;;;;;;;;;5068338;28;20036;-61
2022/05/31 07:05:26;;;;;;;5.47;2.67;;;;;;;;;;5066324;28;20114;-61
2022/05/31 07:07:52;;;;;;;8.27;2.57;;;;;;;;;;5060938;28;20051;-61
2022/05/31 07:10:19;;;;;;;4.87;2.63;;;;;;;;;;5058952;28;20143;-60
2022/05/31 07:12:45;;;;;;;5.80;2.80;;;;;;;;;;5055361;28;20052;-61
2022/05/31 07:15:11;;;;;;;7.23;3.07;;;;;;;;;;5053732;28;20075;-60
2022/05/31 07:17:37;;;;;;;4.40;2.13;;;;;;;;;;5061728;28;20041;-61
2022/05/31 07:20:08;;;;;;;6.20;2.30;;;;;;;;;;5047206;28;20098;-61
2022/05/31 07:22:34;;;;;;;5.83;2.57;;;;;;;;;;5066928;28;20052;-60
2022/05/31 07:25:01;;;;;;;6.13;3.27;;;;;;;;;;5068478;28;20040;-61
2022/05/31 07:27:27;;;;;;;8.80;2.77;;;;;;;;;;5068579;28;20045;-60
2022/05/31 07:29:54;;;;;;;4.73;2.43;;;;;;;;;;5068605;28;20064;-61
2022/05/31 07:32:20;;;;;;;4.00;2.50;;;;;;;;;;5064178;28;20102;-60
2022/05/31 07:34:46;;;;;;;6.80;3.30;;;;;;;;;;5055541;28;20459;-60
2022/05/31 07:37:14;;;;;;;4.60;2.30;;;;;;;;;;5068020;28;20545;-61
2022/05/31 07:39:40;;;;;;;8.67;2.57;;;;;;;;;;5067400;28;20044;-61
2022/05/31 07:42:06;;;;;;;6.03;2.40;;;;;;;;;;5067854;28;20477;-61
2022/05/31 07:44:33;;;;;;;10.40;2.80;;;;;;;;;;5068110;28;20044;-61
2022/05/31 07:47:03;;;;;;;6.03;2.43;;;;;;;;;;5068285;28;20098;-61
2022/05/31 07:49:29;;;;;;;7.33;2.53;;;;;;;;;;5068456;28;20506;-61
2022/05/31 07:51:55;;;;;;;4.93;2.37;;;;;;;;;;5057945;28;20041;-61
2022/05/31 07:54:22;;;;;;;4.03;2.77;;;;;;;;;;5068787;28;20422;-60
2022/05/31 07:56:48;;;;;;;5.37;2.03;;;;;;;;;;5066819;28;20110;-60
2022/05/31 07:59:14;;;;;;;5.47;2.50;;;;;;;;;;5066899;28;20406;-60
2022/05/31 08:01:41;;;;;;;7.53;2.47;;;;;;;;;;5062368;28;20431;-60
2022/05/31 08:04:07;;;;;;;6.17;2.53;;;;;;;;;;5068822;28;20619;-60
2022/05/31 08:06:34;;;;;;;4.60;2.03;;;;;;;;;;5055731;28;20045;-60
2022/05/31 08:09:00;;;;;;;6.60;2.60;;;;;;;;;;5050700;28;20076;-60
2022/05/31 08:11:31;;;;;;;6.10;2.30;;;;;;;;;;5059112;28;20036;-60
2022/05/31 08:13:57;;;;;;;6.23;2.83;;;;;;;;;;5053192;28;20082;-60
2022/05/31 08:16:25;;;;;;;4.60;2.73;;;;;;;;;;5068508;28;20051;-60
2022/05/31 08:18:51;;;;;;;4.30;2.50;;;;;;;;;;5057991;28;20102;-60
2022/05/31 08:21:27;;;;;;;4.97;2.67;;;;;;;;;;5061923;28;20567;-60
2022/05/31 08:24:18;;;;;;;8.63;2.80;;;;;;;;;;5067257;28;20044;-60
2022/05/31 08:26:44;;;;;;;7.27;2.60;;;;;;;;;;5062540;28;20059;-60
2022/05/31 08:29:10;;;;;;;4.50;2.50;;;;;;;;;;5066547;28;20055;-60
2022/05/31 08:31:36;;;;;;;6.40;2.67;;;;;;;;;;5058236;28;20037;-60
2022/05/31 08:34:04;;;;;;;5.13;2.77;;;;;;;;;;5071968;28;20055;-60
2022/05/31 08:36:30;;;;;;;5.77;2.40;;;;;;;;;;5072226;28;20032;-60
2022/05/31 08:38:56;;;;;;;6.30;2.60;;;;;;;;;;5071561;28;20045;-60
2022/05/31 08:41:22;;;;;;;4.57;2.67;;;;;;;;;;5071573;28;20106;-60
2022/05/31 08:43:48;;;;;;;5.87;2.67;;;;;;;;;;5058109;28;20109;-61
2022/05/31 08:46:33;;;;;;;5.80;3.13;;;;;;;;;;5072020;28;20040;-60
2022/05/31 08:49:09;;;;;;;7.90;3.40;;;;;;;;;;5072426;28;20578;-61
2022/05/31 08:51:55;;;;;;;4.13;2.53;;;;;;;;;;5068059;28;20390;-60
2022/05/31 08:57:17;;;;;;;6.17;3.60;;;;;;;;;;5064851;28;20037;-60
2022/05/31 09:00:19;;;;;;;6.30;3.40;;;;;;;;;;5059564;28;20392;-60
2022/05/31 09:02:50;;;;;;;6.07;3.00;;;;;;;;;;5035056;28;20617;-60
2022/05/31 09:05:23;;;;;;;7.50;4.00;;;;;;;;;;5049698;28;20057;-60
2022/05/31 09:07:55;;;;;;;6.50;3.28;;;;;;;;;;5055728;28;20555;-60
2022/05/31 09:10:39;;;;;;;10.13;3.67;;;;;;;;;;5057633;28;20123;-60
2022/05/31 09:13:05;;;;;;;6.87;3.30;;;;;;;;;;5059303;28;20048;-61
2022/05/31 09:15:37;;;;;;;8.87;2.80;;;;;;;;;;5059018;28;20080;-60
2022/05/31 09:18:22;;;;;;;8.00;3.25;;;;;;;;;;5068390;28;20042;-60
2022/05/31 09:20:53;;;;;;;6.77;3.53;;;;;;;;;;5056097;28;20037;-60
2022/05/31 09:23:21;;;;;;;4.63;2.70;;;;;;;;;;5052257;28;20052;-60
2022/05/31 09:25:52;;;;;;;5.87;2.87;;;;;;;;;;5070503;28;20072;-60
2022/05/31 09:28:23;;;;;;;4.77;2.57;;;;;;;;;;5063991;28;20542;-60
2022/05/31 09:30:50;;;;;;;7.00;3.30;;;;;;;;;;5070316;28;20045;-61
2022/05/31 09:33:20;;;;;;;6.40;2.57;;;;;;;;;;5067439;28;20189;-60
2022/05/31 09:35:55;;;;;;;6.20;2.73;;;;;;;;;;5071247;28;20052;-60
2022/05/31 09:38:40;;;;;;;8.23;2.97;;;;;;;;;;5051358;28;20055;-60
2022/05/31 09:41:06;;;;;;;6.40;2.60;;;;;;;;;;5067387;28;20079;-60
2022/05/31 09:43:42;;;;;;;6.50;2.23;;;;;;;;;;5070653;28;20297;-60
2022/05/31 09:46:08;;;;;;;6.70;2.73;;;;;;;;;;5069024;28;20041;-60
2022/05/31 09:48:51;;;;;;;7.70;2.33;;;;;;;;;;5053003;28;20392;-60
2022/05/31 09:51:17;;;;;;;5.80;2.87;;;;;;;;;;5068353;28;20076;-60
2022/05/31 09:59:21;;;;;;;5.20;2.60;;;;;;;;;;5064630;28;20064;-60
2022/05/31 10:01:48;;;;;;;4.70;2.97;;;;;;;;;;5058809;28;20040;-61
2022/05/31 10:04:22;;;;;;;4.47;2.97;;;;;;;;;;5068630;28;20040;-60
2022/05/31 10:06:54;;;;;;;7.47;3.30;;;;;;;;;;5070079;28;20094;-60
2022/05/31 10:09:21;;;;;;;11.40;3.83;;;;;;;;;;5068784;28;20071;-61
2022/05/31 10:11:49;;;;;;;8.13;3.67;;;;;;;;;;5069893;28;20577;-61
2022/05/31 10:14:25;;;;;;;7.87;3.40;;;;;;;;;;5061514;28;20052;-60
2022/05/31 10:16:51;;;;;;;6.80;3.20;;;;;;;;;;5053779;28;20048;-60
2022/05/31 10:19:29;;;;;;;6.50;3.43;;;;;;;;;;5052036;28;20041;-60
2022/05/31 10:21:56;;;;;;;6.97;3.47;;;;;;;;;;5065755;28;20082;-61
2022/05/31 10:24:27;;;;;;;9.07;3.90;;;;;;;;;;5064443;28;20091;-61
2022/05/31 10:27:11;;;;;;;6.27;2.87;;;;;;;;;;5066162;28;20530;-60
2022/05/31 10:29:49;;;;;;;5.17;1.77;;;;;;;;;;5050626;28;20457;-60
2022/05/31 10:32:24;;;;;;;4.73;2.50;;;;;;;;;;5057630;28;20048;-60
2022/05/31 10:35:04;;;;;;;7.20;2.10;;;;;;;;;;5061809;28;20059;-60
2022/05/31 10:37:32;;;;;;;4.83;1.90;;;;;;;;;;5065592;28;20128;-60
2022/05/31 10:40:04;;;;;;;7.30;2.77;;;;;;;;;;5054950;28;20052;-60
2022/05/31 10:42:30;;;;;;;5.70;2.60;;;;;;;;;;5058436;28;20095;-60
2022/05/31 10:45:02;;;;;;;5.20;2.30;;;;;;;;;;5049777;28;20539;-59
2022/05/31 10:47:28;;;;;;;6.70;2.60;;;;;;;;;;5048999;28;20053;-60
2022/05/31 10:49:55;;;;;;;3.50;2.47;;;;;;;;;;5049404;28;20503;-60
2022/05/31 10:52:24;;;;;;;6.17;3.50;;;;;;;;;;5048636;28;20504;-60
2022/05/31 10:54:57;;;;;;;6.53;3.17;;;;;;;;;;5049555;28;20092;-60
2022/05/31 10:57:27;;;;;;;6.30;3.23;;;;;;;;;;5049249;28;20048;-60
2022/05/31 10:59:55;;;;;;;8.97;3.60;;;;;;;;;;5048442;28;20511;-60
2022/05/31 11:02:33;;;;;;;8.47;3.87;;;;;;;;;;5049510;28;20045;-60
2022/05/31 11:04:59;;;;;;;6.63;3.57;;;;;;;;;;5049242;28;20115;-60
2022/05/31 11:07:35;;;;;;;7.13;3.67;;;;;;;;;;5049023;28;20045;-60
2022/05/31 11:13:33;;;;;;;7.47;3.70;;;;;;;;;;5039940;28;20049;-60
2022/05/31 11:16:05;;;;;;;6.67;4.77;;;;;;;;;;5047974;28;20056;-60
2022/05/31 11:18:42;;;;;;;5.63;4.10;;;;;;;;;;5049057;28;20480;-60
2022/05/31 11:21:08;;;;;;;8.37;4.10;;;;;;;;;;5053254;28;20186;-60
2022/05/31 11:23:34;;;;;;;12.23;4.07;;;;;;;;;;5068856;28;20186;-60
2022/05/31 11:26:20;;;;;;;7.80;3.80;;;;;;;;;;5067251;28;20612;-60
2022/05/31 11:28:46;;;;;;;7.33;4.23;;;;;;;;;;5069133;28;20049;-60
2022/05/31 11:31:12;;;;;;;12.07;4.10;;;;;;;;;;5067498;28;20056;-60
2022/05/31 11:33:50;;;;;;;9.77;4.10;;;;;;;;;;5069094;28;20059;-60
2022/05/31 11:36:40;;;;;;;8.57;4.40;;;;;;;;;;5068846;28;20418;-60
2022/05/31 11:39:17;;;;;;;9.10;3.70;;;;;;;;;;5068816;28;20549;-60
2022/05/31 11:41:47;;;;;;;7.23;4.73;;;;;;;;;;5068973;28;20532;-60
2022/05/31 11:44:19;;;;;;;10.13;4.83;;;;;;;;;;5052719;28;20067;-60
2022/05/31 11:46:50;;;;;;;9.10;4.35;;;;;;;;;;5048978;28;20055;-60
2022/05/31 11:49:33;;;;;;;9.73;3.87;;;;;;;;;;5048160;28;20045;-60
2022/05/31 11:51:59;;;;;;;10.82;5.10;;;;;;;;;;5048466;28;20135;-60
2022/05/31 11:54:34;;;;;;;8.77;4.40;;;;;;;;;;5048602;28;20128;-60
2022/05/31 11:57:09;;;;;;;5.10;3.97;;;;;;;;;;5049482;28;20155;-60
2022/05/31 11:59:42;;;;;;;9.10;4.20;;;;;;;;;;5047368;28;20045;-60
2022/05/31 12:02:34;;;;;;;7.28;4.28;;;;;;;;;;5046898;28;20072;-62
2022/05/31 12:05:07;;;;;;;10.63;3.80;;;;;;;;;;5033040;28;20506;-60
2022/05/31 12:07:35;;;;;;;6.27;4.40;;;;;;;;;;5047687;28;20498;-61
2022/05/31 12:10:07;;;;;;;10.47;4.93;;;;;;;;;;5049018;28;20321;-60
2022/05/31 12:12:35;;;;;;;7.47;4.78;;;;;;;;;;5047989;28;20045;-60
2022/05/31 12:15:13;;;;;;;7.07;4.17;;;;;;;;;;5048765;28;20045;-61
2022/05/31 12:17:42;;;;;;;8.40;4.40;;;;;;;;;;5049166;28;20051;-60
2022/05/31 12:20:08;;;;;;;7.20;3.73;;;;;;;;;;5048771;28;20563;-60
2022/05/31 12:22:38;;;;;;;9.87;3.87;;;;;;;;;;5048510;28;20052;-60
2022/05/31 12:25:13;;;;;;;8.73;4.57;;;;;;;;;;5047420;28;20041;-61
2022/05/31 12:27:48;;;;;;;8.90;4.07;;;;;;;;;;5067447;28;20382;-61
2022/05/31 12:30:19;;;;;;;7.80;3.80;;;;;;;;;;5061585;28;20045;-60
2022/05/31 12:32:46;;;;;;;11.63;3.40;;;;;;;;;;5059714;28;20045;-60
2022/05/31 12:35:40;;;;;;;5.63;2.97;;;;;;;;;;5056055;28;20110;-60
2022/05/31 12:38:10;;;;;;;12.53;6.10;;;;;;;;;;5040649;28;20053;-60
2022/05/31 12:40:37;;;;;;;7.83;3.50;;;;;;;;;;5055919;28;20056;-60
2022/05/31 12:43:12;;;;;;;10.40;3.50;;;;;;;;;;5056010;28;20503;-60
2022/05/31 12:45:39;;;;;;;7.70;3.43;;;;;;;;;;5066788;28;20566;-61
2022/05/31 12:48:25;;;;;;;5.67;2.87;;;;;;;;;;5057354;28;20047;-60
2022/05/31 12:50:54;;;;;;;7.73;2.70;;;;;;;;;;5059243;28;20056;-60
2022/05/31 12:53:22;;;;;;;5.40;2.47;;;;;;;;;;5058777;28;20140;-60
2022/05/31 12:55:48;;;;;;;5.77;2.20;;;;;;;;;;5048608;28;20084;-60
2022/05/31 12:58:30;;;;;;;5.87;2.00;;;;;;;;;;5047051;28;20500;-60
2022/05/31 13:00:56;;;;;;;4.33;1.87;;;;;;;;;;5048712;28;20045;-60
2022/05/31 13:03:34;;;;;;;3.70;1.63;;;;;;;;;;5048420;28;20037;-61
2022/05/31 13:06:10;;;;;;;6.27;2.17;;;;;;;;;;5048738;28;20057;-60
2022/05/31 13:08:49;;;;;;;7.27;1.90;;;;;;;;;;5048933;28;20140;-60
2022/05/31 13:20:11;;;;;;;5.33;2.50;;;;;;;;;;5067364;28;20048;-60
2022/05/31 13:22:38;;;;;;;7.23;2.27;;;;;;;;;;5062558;28;20079;-60
2022/05/31 13:25:19;;;;;;;5.53;2.20;;;;;;;;;;5052141;28;20481;-60
2022/05/31 13:27:50;;;;;;;4.97;2.40;;;;;;;;;;5065381;28;20036;-61
2022/05/31 13:30:18;;;;;;;6.80;2.72;;;;;;;;;;5052221;28;20041;-60
2022/05/31 13:32:44;;;;;;;6.85;2.95;;;;;;;;;;5060430;28;20079;-61
2022/05/31 13:35:32;;;;;;;4.13;2.47;;;;;;;;;;5051799;28;20045;-61
2022/05/31 13:38:03;;;;;;;5.53;3.00;;;;;;;;;;5056415;28;20087;-61
2022/05/31 13:40:35;;;;;;;6.80;2.75;;;;;;;;;;5058943;28;20121;-61
2022/05/31 13:43:04;;;;;;;4.80;2.60;;;;;;;;;;5052280;28;20492;-61
2022/05/31 13:45:30;;;;;;;6.32;2.75;;;;;;;;;;5066382;28;20089;-61
2022/05/31 13:47:59;;;;;;;5.13;2.63;;;;;;;;;;5057052;28;20068;-60
2022/05/31 13:50:33;;;;;;;6.18;2.92;;;;;;;;;;5067428;28;20044;-61
2022/05/31 13:53:03;;;;;;;5.63;2.97;;;;;;;;;;5066257;28;20135;-61
2022/05/31 13:55:30;;;;;;;5.70;2.80;;;;;;;;;;5068168;28;20521;-61
2022/05/31 13:57:56;;;;;;;5.38;2.97;;;;;;;;;;5062801;28;20070;-61
2022/05/31 14:00:31;;;;;;;4.95;2.70;;;;;;;;;;5069963;28;20047;-61
2022/05/31 14:03:06;;;;;;;5.88;2.70;;;;;;;;;;5061661;28;20052;-60
2022/05/31 14:05:40;;;;;;;5.32;2.25;;;;;;;;;;5058709;28;20045;-61
2022/05/31 14:08:06;;;;;;;4.43;2.42;;;;;;;;;;5060438;28;20037;-61
2022/05/31 14:10:35;;;;;;;5.40;2.47;;;;;;;;;;5061445;28;20041;-60
2022/05/31 14:13:03;;;;;;;4.07;2.53;;;;;;;;;;5056048;28;20081;-60
2022/05/31 14:15:31;;;;;;;4.47;2.88;;;;;;;;;;5070146;28;20823;-61
2022/05/31 14:18:08;;;;;;;4.05;2.08;;;;;;;;;;5068128;28;20045;-61
2022/05/31 14:20:38;;;;;;;5.13;2.50;;;;;;;;;;5071212;28;20048;-61
2022/05/31 14:23:06;;;;;;;5.32;2.63;;;;;;;;;;5052099;28;20578;-61
2022/05/31 14:25:32;;;;;;;5.65;2.90;;;;;;;;;;5065385;28;20051;-61
2022/05/31 14:27:58;;;;;;;3.50;2.20;;;;;;;;;;5059867;28;20066;-61
2022/05/31 14:30:29;;;;;;;6.22;3.22;;;;;;;;;;5060424;28;20056;-61
2022/05/31 14:33:02;;;;;;;4.95;2.63;;;;;;;;;;5056494;28;20049;-61
2022/05/31 14:35:31;;;;;;;3.72;2.55;;;;;;;;;;5067609;28;20507;-61
2022/05/31 14:37:57;;;;;;;6.30;3.15;;;;;;;;;;5063951;28;20558;-61
2022/05/31 14:40:31;;;;;;;4.50;2.55;;;;;;;;;;5062633;28;20052;-61
2022/05/31 14:43:14;;;;;;;5.63;3.13;;;;;;;;;;5069486;28;20045;-60
2022/05/31 14:45:40;;;;;;;;;;;;;;;;;;5065859;28;20037;-61
2022/05/31 14:48:25;;;;;;;7.43;2.92;;;;;;;;;;5057012;28;19928;-61
2022/05/31 14:50:55;;;;;;;5.13;2.72;;;;;;;;;;5053491;28;20072;-61
2022/05/31 14:53:22;;;;;;;4.57;2.92;;;;;;;;;;5057693;28;20102;-61
2022/05/31 14:55:48;;;;;;;4.30;2.60;;;;;;;;;;5064692;28;20048;-61
2022/05/31 14:58:37;;;;;;;6.30;2.90;;;;;;;;;;5063133;28;20403;-61
2022/05/31 15:01:24;;;;;;;3.45;2.30;;;;;;;;;;5065881;28;20043;-61
2022/05/31 15:03:57;;;;;;;5.40;3.08;;;;;;;;;;5069467;28;20075;-62
2022/05/31 15:06:29;;;;;;;5.95;3.15;;;;;;;;;;5068066;28;20033;-61
2022/05/31 15:09:07;;;;;;;4.55;3.00;;;;;;;;;;5061058;28;20551;-61
2022/05/31 15:19:49;;;;;;;6.65;2.95;;;;;;;;;;5066764;28;20048;-61
2022/05/31 15:22:16;;;;;;;4.75;2.70;;;;;;;;;;5070138;28;20045;-60
2022/05/31 15:24:43;;;;;;;5.88;2.50;;;;;;;;;;5069902;28;20494;-60
2022/05/31 15:27:38;;;;;;;5.50;2.45;;;;;;;;;;5070325;28;20048;-61
2022/05/31 15:30:05;;;;;;;8.45;2.67;;;;;;;;;;5064368;28;20139;-61
2022/05/31 15:32:31;;;;;;;4.78;2.90;;;;;;;;;;5069326;28;20094;-60